Airfield :
LOGIN :

Register | Disclaimer

   EN    FR    IT 

 










Legend :    VFR   Marginal VFR   IFR   Intensive IFR   Very Intensive IFR
Visi :
Ceiling :
>= 8 km
>= 3000ft
5 to 8 km
1000 to 3000 ft
1500m to 5 km
500 to 1000 ft
800 to 1500m
200 to 500 ft
< 800m
< 200 ft
Symbols :   Thunderstorms  Fog  Heavy snow  Heavy precipitations  Wind > 20 kt
SIGMETs :     Misc.  Thunderstorms  Icing  Turbulence  Mountain Waves  Volcanic Ashes







- Airport Elevation : 53 ft
- IATA code : AGP


LEMG - Malaga

CURRENT METAR :
  • 191730Z 26005KT 220V280 9999 FEW018 SCT040 16/10 Q1004 NOSIG

EXPIRED METARs :
  • 191700Z 26005KT 230V290 9999 FEW018 SCT040 17/10 Q1004 NOSIG
  • 191630Z 28007KT 9999 FEW018 SCT040 17/10 Q1003 NOSIG
  • 191600Z 28008KT 9999 FEW018 SCT040 17/11 Q1003 NOSIG
  • 191530Z 27011KT 9999 FEW018 SCT040 18/10 Q1002 NOSIG
  • 191500Z 27010KT 240V310 9999 FEW018 SCT040 19/11 Q1002 NOSIG

TAF TAF LEMG
Valid from the 19 at 18:00 until the 20 at 18:00 UTC


191700Z 1918/2018 28005KT 9999 FEW020 SCT030 TX18/2015Z TN12/2003Z
BECMG 2004/2007 16008KT
PROB40
TEMPO 2005/2011 4000 RA BKN014
BECMG 2010/2013 30009KT
No reported NOTAMs for that airfield.



MET'MAP, your aeronautical weather chart ! - Copyright ORBIFLY December 2007 - Disclaimer

ORBIFLY MET'MAP TEAM :

Programming & Development : Alexandra Zaïnal
Concept & Development : Baudouin d'Aumeries
Co-Development & Prog : Marc-Olivier Méhu
Technical & hardware support : Manuel Goepfert

Contact : metmap@orbifly.com




SOURCES & CREDITS :

   NOAA